Wetterdaten: Woche 22.06.09 - 28.06.09 (KW26)
Datum Zeit Temp. A. Feuchte A. Luftdruck Regen Wind Richtung Taupunkt Windchill Windben
22.06.2009 00:00 13,4 C 77 % 1015,4 hPa 0,0 l/m 3,8 km/h NW 9,4 C 13,4 C 12,9 km/h
22.06.2009 01:00 13,1 C 78 % 1015,0 hPa 0,0 l/m 4,6 km/h NW 9,4 C 13,1 C 14,9 km/h
22.06.2009 02:00 12,9 C 79 % 1015,1 hPa 0,0 l/m 3,6 km/h N-NW 9,4 C 12,9 C 9,7 km/h
22.06.2009 03:00 12,8 C 78 % 1014,5 hPa 0,0 l/m 4,7 km/h N 9,1 C 12,8 C 15,3 km/h
22.06.2009 04:00 12,5 C 79 % 1014,4 hPa 0,0 l/m 4,9 km/h NW 8,9 C 12,5 C 12,9 km/h
22.06.2009 05:00 12,6 C 78 % 1014,3 hPa 0,0 l/m 5,0 km/h N-NW 8,9 C 12,6 C 14,1 km/h
22.06.2009 06:00 12,7 C 79 % 1014,3 hPa 0,0 l/m 6,4 km/h NW 9,1 C 12,6 C 16,9 km/h
22.06.2009 07:00 13,1 C 77 % 1014,2 hPa 0,0 l/m 5,8 km/h N-NW 9,2 C 13,1 C 16,9 km/h
22.06.2009 08:00 13,1 C 77 % 1014,5 hPa 0,0 l/m 6,0 km/h N-NW 9,2 C 13,0 C 14,5 km/h
22.06.2009 09:00 12,9 C 81 % 1014,5 hPa 0,0 l/m 5,0 km/h N 9,7 C 12,9 C 13,7 km/h
22.06.2009 10:00 13,0 C 82 % 1014,5 hPa 0,0 l/m 6,4 km/h N-NW 10,0 C 12,9 C 16,5 km/h
22.06.2009 11:00 12,8 C 86 % 1014,4 hPa 1,0 l/m 6,0 km/h NW 10,6 C 12,9 C 17,7 km/h
22.06.2009 12:00 12,8 C 89 % 1014,3 hPa 3,2 l/m 6,3 km/h NW 11,0 C 12,7 C 18,5 km/h
22.06.2009 13:00 12,8 C 90 % 1014,0 hPa 4,5 l/m 6,1 km/h NW 11,2 C 12,6 C 18,5 km/h
22.06.2009 14:00 12,9 C 90 % 1013,4 hPa 4,8 l/m 7,5 km/h NW 11,2 C 12,2 C 16,5 km/h
22.06.2009 15:00 13,0 C 90 % 1013,1 hPa 3,2 l/m 7,5 km/h N-NW 11,4 C 12,3 C 23,7 km/h
22.06.2009 16:00 13,1 C 90 % 1013,0 hPa 5,8 l/m 7,0 km/h N-NW 11,4 C 12,7 C 18,9 km/h
22.06.2009 17:00 13,1 C 90 % 1012,6 hPa 2,2 l/m 8,4 km/h N-NW 11,5 C 11,9 C 21,3 km/h
22.06.2009 18:00 12,9 C 90 % 1012,5 hPa 1,9 l/m 9,1 km/h NW 11,3 C 11,2 C 21,7 km/h
22.06.2009 19:00 12,8 C 90 % 1012,3 hPa 0,3 l/m 8,9 km/h NW 11,1 C 11,3 C 22,9 km/h
22.06.2009 20:00 12,7 C 90 % 1011,9 hPa 1,6 l/m 9,2 km/h N-NW 11,0 C 11,0 C 22,9 km/h
22.06.2009 21:00 12,5 C 91 % 1012,0 hPa 3,8 l/m 7,1 km/h N-NW 11,0 C 11,8 C 18,1 km/h
22.06.2009 22:00 12,2 C 91 % 1012,4 hPa 9,9 l/m 4,0 km/h NW 10,8 C 12,2 C 12,1 km/h
22.06.2009 23:00 12,1 C 91 % 1012,0 hPa 7,0 l/m 4,5 km/h NW 10,7 C 12,1 C 12,5 km/h
23.06.2009 00:00 12,2 C 91 % 1011,7 hPa 3,5 l/m 5,1 km/h W 10,8 C 12,2 C 16,5 km/h
23.06.2009 01:00 12,3 C 91 % 1011,5 hPa 3,5 l/m 4,4 km/h NW 10,8 C 12,3 C 17,3 km/h
23.06.2009 02:00 12,3 C 91 % 1011,0 hPa 1,3 l/m 3,9 km/h NW 10,9 C 12,3 C 16,9 km/h
23.06.2009 03:00 12,3 C 91 % 1010,7 hPa 1,9 l/m 3,8 km/h NW 10,9 C 12,3 C 12,5 km/h
23.06.2009 04:00 12,4 C 91 % 1010,6 hPa 1,9 l/m 3,0 km/h NW 11,0 C 12,4 C 9,7 km/h
23.06.2009 05:00 12,6 C 91 % 1010,7 hPa 4,2 l/m 3,0 km/h SW 11,2 C 12,6 C 12,1 km/h
23.06.2009 06:00 12,6 C 92 % 1010,6 hPa 2,6 l/m 2,9 km/h NW 11,4 C 12,6 C 9,6 km/h
23.06.2009 07:00 12,7 C 91 % 1010,5 hPa 1,3 l/m 4,9 km/h N-NW 11,4 C 12,7 C 17,7 km/h
23.06.2009 08:00 12,8 C 91 % 1010,6 hPa 1,3 l/m 3,9 km/h NW 11,4 C 12,8 C 16,6 km/h
23.06.2009 09:00 12,8 C 91 % 1010,7 hPa 2,2 l/m 3,4 km/h NW 11,4 C 12,8 C 10,9 km/h
23.06.2009 10:00 12,9 C 91 % 1010,6 hPa 0,3 l/m 3,3 km/h NW 11,4 C 12,9 C 12,9 km/h
23.06.2009 11:00 13,2 C 91 % 1010,6 hPa 0,3 l/m 2,7 km/h S 11,7 C 13,2 C 11,3 km/h
23.06.2009 12:00 13,2 C 90 % 1010,5 hPa 1,6 l/m 3,4 km/h NO 11,7 C 13,2 C 13,7 km/h
23.06.2009 13:00 13,4 C 91 % 1010,4 hPa 1,3 l/m 3,7 km/h N-NW 11,9 C 13,4 C 11,7 km/h
23.06.2009 14:00 13,8 C 90 % 1010,4 hPa 0,3 l/m 3,3 km/h O 12,2 C 13,8 C 13,3 km/h
23.06.2009 15:00 14,0 C 90 % 1010,4 hPa 1,0 l/m 2,8 km/h N-NO 12,4 C 14,0 C 13,7 km/h
23.06.2009 16:00 14,5 C 89 % 1010,3 hPa 0,0 l/m 2,6 km/h S-SO 12,6 C 14,5 C 11,3 km/h
23.06.2009 17:00 14,6 C 89 % 1010,5 hPa 0,3 l/m 1,8 km/h N-NW 12,8 C 14,6 C 8,8 km/h
23.06.2009 18:00 14,6 C 89 % 1010,8 hPa 0,0 l/m 1,8 km/h SW 12,9 C 14,6 C 9,3 km/h
23.06.2009 19:00 15,0 C 89 % 1010,6 hPa 0,3 l/m 1,6 km/h N-NO 13,2 C 15,0 C 10,5 km/h
23.06.2009 20:00 15,0 C 89 % 1010,4 hPa 1,0 l/m 3,5 km/h NW 13,2 C 15,0 C 10,1 km/h
23.06.2009 21:00 14,8 C 90 % 1010,5 hPa 0,6 l/m 3,2 km/h SW 13,1 C 14,8 C 11,7 km/h
23.06.2009 22:00 15,4 C 88 % 1010,1 hPa 0,0 l/m 3,1 km/h N-NW 13,5 C 15,4 C 12,1 km/h
23.06.2009 23:00 15,3 C 89 % 1009,6 hPa 1,3 l/m 2,9 km/h S-SW 13,6 C 15,3 C 11,7 km/h
24.06.2009 00:00 15,0 C 90 % 1009,1 hPa 0,6 l/m 3,7 km/h S 13,3 C 15,0 C 14,5 km/h
24.06.2009 01:00 15,2 C 89 % 1008,5 hPa 0,3 l/m 2,6 km/h SW 13,5 C 15,2 C 8,9 km/h
24.06.2009 02:00 15,5 C 90 % 1008,1 hPa 0,0 l/m 2,3 km/h NW 13,8 C 15,5 C 7,2 km/h
24.06.2009 03:00 15,8 C 89 % 1007,8 hPa 0,0 l/m 2,6 km/h W 14,0 C 15,8 C 7,2 km/h
24.06.2009 04:00 16,0 C 89 % 1007,8 hPa 0,0 l/m 2,7 km/h N-NW 14,2 C 16,0 C 6,8 km/h
24.06.2009 05:00 16,3 C 91 % 1007,8 hPa 0,0 l/m 2,3 km/h N-NW 14,7 C 16,3 C 6,4 km/h
24.06.2009 06:00 17,0 C 90 % 1007,9 hPa 0,3 l/m 3,6 km/h N-NW 15,3 C 17,0 C 7,6 km/h
24.06.2009 07:00 17,1 C 89 % 1008,2 hPa 0,0 l/m 3,4 km/h N-NW 15,3 C 17,1 C 8,4 km/h
24.06.2009 08:00 17,1 C 88 % 1008,5 hPa 0,0 l/m 3,2 km/h N-NW 15,1 C 17,1 C 7,6 km/h
24.06.2009 09:00 17,2 C 88 % 1008,6 hPa 0,0 l/m 3,6 km/h N-NW 15,2 C 17,2 C 9,3 km/h
24.06.2009 10:00 17,2 C 88 % 1008,7 hPa 0,0 l/m 4,2 km/h N-NW 15,2 C 17,2 C 9,7 km/h
24.06.2009 11:00 17,4 C 89 % 1008,8 hPa 0,0 l/m 4,7 km/h NW 15,5 C 17,4 C 10,9 km/h
24.06.2009 12:00 18,0 C 87 % 1008,8 hPa 0,3 l/m 5,3 km/h N-NO 15,8 C 18,0 C 12,5 km/h
24.06.2009 13:00 18,4 C 86 % 1008,7 hPa 0,0 l/m 5,3 km/h NW 15,9 C 18,4 C 15,3 km/h
24.06.2009 14:00 17,0 C 87 % 1008,9 hPa 1,0 l/m 4,5 km/h NW 14,9 C 17,0 C 16,1 km/h
24.06.2009 15:00 15,9 C 91 % 1009,0 hPa 11,2 l/m 3,8 km/h S 14,3 C 15,9 C 13,3 km/h
24.06.2009 16:00 15,4 C 92 % 1009,0 hPa 6,7 l/m 3,0 km/h SW 14,0 C 15,4 C 9,6 km/h
24.06.2009 17:00 15,5 C 91 % 1008,9 hPa 1,6 l/m 4,4 km/h W-NW 14,1 C 15,5 C 16,9 km/h
24.06.2009 18:00 15,4 C 91 % 1008,8 hPa 1,3 l/m 4,5 km/h S-SW 13,9 C 15,4 C 18,9 km/h
24.06.2009 19:00 15,4 C 90 % 1009,3 hPa 0,3 l/m 3,1 km/h SW 13,8 C 15,4 C 17,3 km/h
24.06.2009 20:00 15,5 C 89 % 1009,6 hPa 0,0 l/m 2,9 km/h NW 13,7 C 15,5 C 10,5 km/h
24.06.2009 21:00 15,3 C 88 % 1010,1 hPa 0,0 l/m 3,0 km/h W-NW 13,4 C 15,3 C 14,9 km/h
24.06.2009 22:00 15,4 C 87 % 1010,0 hPa 0,0 l/m 2,8 km/h N-NW 13,2 C 15,4 C 11,3 km/h
24.06.2009 23:00 15,4 C 88 % 1009,8 hPa 0,0 l/m 2,7 km/h N-NW 13,4 C 15,4 C 11,7 km/h
25.06.2009 00:00 15,5 C 87 % 1009,7 hPa 0,0 l/m 2,5 km/h N-NW 13,4 C 15,5 C 10,1 km/h
25.06.2009 01:00 15,5 C 87 % 1009,7 hPa 0,0 l/m 1,5 km/h NW 13,3 C 15,5 C 9,2 km/h
25.06.2009 02:00 15,4 C 88 % 1009,7 hPa 0,0 l/m 0,9 km/h W-SW 13,3 C 15,4 C 6,0 km/h
25.06.2009 03:00 15,4 C 87 % 1009,5 hPa 0,0 l/m 0,7 km/h N 13,2 C 15,4 C 8,5 km/h
25.06.2009 04:00 15,5 C 86 % 1009,4 hPa 0,0 l/m 0,9 km/h N-NW 13,3 C 15,5 C 10,1 km/h
25.06.2009 05:00 15,6 C 87 % 1009,6 hPa 0,0 l/m 1,0 km/h N-NW 13,4 C 15,6 C 4,4 km/h
25.06.2009 06:00 15,9 C 86 % 1009,3 hPa 0,0 l/m 1,4 km/h SW 13,6 C 15,9 C 7,2 km/h
25.06.2009 07:00 16,7 C 85 % 1009,2 hPa 0,0 l/m 1,6 km/h NW 14,1 C 16,7 C 9,6 km/h
25.06.2009 08:00 17,3 C 84 % 1009,4 hPa 0,0 l/m 2,2 km/h S-SO 14,5 C 17,3 C 8,0 km/h
25.06.2009 09:00 18,0 C 82 % 1009,2 hPa 0,0 l/m 3,6 km/h NW 14,9 C 18,0 C 14,5 km/h
25.06.2009 10:00 19,2 C 79 % 1009,3 hPa 0,0 l/m 3,9 km/h S 15,4 C 19,2 C 16,9 km/h
25.06.2009 11:00 20,6 C 76 % 1009,1 hPa 0,0 l/m 4,5 km/h NO 16,1 C 20,6 C 14,1 km/h
25.06.2009 12:00 22,1 C 72 % 1008,7 hPa 0,0 l/m 4,5 km/h N-NO 16,7 C 22,1 C 16,9 km/h
25.06.2009 13:00 23,0 C 68 % 1008,3 hPa 0,0 l/m 4,4 km/h S 16,7 C 23,0 C 13,3 km/h
25.06.2009 14:00 23,8 C 65 % 1007,8 hPa 0,0 l/m 3,3 km/h NW 16,8 C 23,8 C 10,5 km/h
25.06.2009 15:00 23,8 C 64 % 1007,4 hPa 0,0 l/m 3,7 km/h N-NW 16,4 C 23,8 C 9,7 km/h
25.06.2009 16:00 19,5 C 76 % 1007,9 hPa 0,6 l/m 3,8 km/h NO 15,1 C 19,3 C 11,6 km/h
25.06.2009 17:00 18,8 C 88 % 1007,6 hPa 0,0 l/m 0,3 km/h N 16,6 C 18,8 C 2,8 km/h
25.06.2009 18:00 20,1 C 78 % 1007,7 hPa 0,0 l/m 0,7 km/h NW 16,1 C 20,1 C 4,0 km/h
25.06.2009 19:00 19,5 C 76 % 1007,8 hPa 0,0 l/m 1,9 km/h NW 15,0 C 19,5 C 6,4 km/h
25.06.2009 20:00 18,8 C 80 % 1008,0 hPa 0,0 l/m 0,5 km/h N 15,2 C 18,8 C 4,4 km/h
25.06.2009 21:00 17,5 C 83 % 1008,6 hPa 0,0 l/m 0,1 km/h N 14,6 C 17,5 C 2,0 km/h
25.06.2009 22:00 17,9 C 80 % 1008,3 hPa 0,0 l/m 0,3 km/h N 14,2 C 17,9 C 5,2 km/h
25.06.2009 23:00 17,5 C 81 % 1007,9 hPa 0,0 l/m 0,8 km/h SW 14,1 C 17,5 C 5,6 km/h
26.06.2009 00:00 17,5 C 83 % 1007,6 hPa 0,0 l/m 1,5 km/h SW 14,6 C 17,5 C 7,6 km/h
26.06.2009 01:00 17,2 C 83 % 1007,9 hPa 0,0 l/m 0,1 km/h N 14,3 C 17,2 C 2,0 km/h
26.06.2009 02:00 17,0 C 85 % 1008,1 hPa 0,0 l/m 0,9 km/h W-NW 14,4 C 17,0 C 4,0 km/h
26.06.2009 03:00 17,9 C 82 % 1008,0 hPa 0,0 l/m 1,4 km/h NO 14,8 C 17,9 C 6,4 km/h
26.06.2009 04:00 17,6 C 83 % 1007,9 hPa 0,0 l/m 1,4 km/h S 14,6 C 17,6 C 6,4 km/h
26.06.2009 05:00 17,8 C 82 % 1007,9 hPa 0,0 l/m 1,1 km/h N-NO 14,6 C 17,8 C 8,0 km/h
26.06.2009 06:00 17,8 C 83 % 1008,3 hPa 0,0 l/m 1,2 km/h NW 14,8 C 17,8 C 5,2 km/h
26.06.2009 07:00 18,1 C 82 % 1008,5 hPa 0,0 l/m 1,9 km/h NW 15,0 C 18,1 C 7,6 km/h
26.06.2009 08:00 19,0 C 80 % 1008,5 hPa 0,0 l/m 3,8 km/h NW 15,5 C 19,0 C 10,5 km/h
26.06.2009 09:00 19,5 C 79 % 1008,6 hPa 0,0 l/m 4,8 km/h NW 15,8 C 19,4 C 13,7 km/h
26.06.2009 10:00 19,6 C 79 % 1008,7 hPa 0,0 l/m 4,6 km/h NW 15,8 C 19,6 C 12,5 km/h
26.06.2009 11:00 21,2 C 76 % 1008,6 hPa 0,0 l/m 4,9 km/h NW 16,8 C 21,2 C 15,3 km/h
26.06.2009 12:00 22,3 C 73 % 1008,3 hPa 0,0 l/m 5,7 km/h N-NO 17,2 C 22,2 C 16,5 km/h
26.06.2009 13:00 23,0 C 71 % 1007,7 hPa 0,0 l/m 5,5 km/h NW 17,5 C 22,9 C 13,3 km/h
26.06.2009 14:00 23,8 C 69 % 1007,0 hPa 0,0 l/m 6,2 km/h N-NO 17,7 C 23,8 C 16,9 km/h
26.06.2009 15:00 24,7 C 66 % 1006,4 hPa 0,0 l/m 5,1 km/h N-NW 17,9 C 24,7 C 12,5 km/h
26.06.2009 16:00 21,5 C 73 % 1006,4 hPa 0,3 l/m 5,2 km/h N-NW 16,5 C 21,3 C 15,3 km/h
26.06.2009 17:00 17,5 C 89 % 1007,3 hPa 0,0 l/m 0,2 km/h N 15,7 C 17,5 C 2,4 km/h
26.06.2009 18:00 18,0 C 91 % 1007,7 hPa 0,0 l/m 0,2 km/h N 16,5 C 18,0 C 2,8 km/h
26.06.2009 19:00 17,9 C 91 % 1008,0 hPa 0,0 l/m 0,3 km/h W 16,4 C 17,9 C 2,0 km/h
26.06.2009 20:00 17,9 C 92 % 1007,5 hPa 0,3 l/m 0,2 km/h N 16,5 C 17,9 C 4,4 km/h
26.06.2009 21:00 17,4 C 91 % 1007,9 hPa 0,0 l/m 0,5 km/h N 15,9 C 17,4 C 5,2 km/h
26.06.2009 22:00 17,0 C 91 % 1008,2 hPa 0,0 l/m 0,9 km/h SW 15,5 C 17,0 C 6,0 km/h
26.06.2009 23:00 16,7 C 91 % 1008,4 hPa 0,0 l/m 0,3 km/h N 15,2 C 16,7 C 5,2 km/h
27.06.2009 00:00 16,6 C 90 % 1008,7 hPa 0,0 l/m 0,1 km/h N 14,9 C 16,6 C 1,6 km/h
27.06.2009 01:00 15,8 C 92 % 1008,8 hPa 0,3 l/m 0,0 km/h N 14,4 C 15,8 C 1,2 km/h
27.06.2009 02:00 15,8 C 92 % 1008,7 hPa 0,0 l/m 0,1 km/h N 14,5 C 15,8 C 2,0 km/h
27.06.2009 03:00 15,6 C 92 % 1008,8 hPa 0,0 l/m 0,0 km/h N 14,4 C 15,6 C 0,8 km/h
27.06.2009 04:00 16,6 C 90 % 1009,0 hPa 0,0 l/m 1,3 km/h S-SW 14,9 C 16,6 C 7,2 km/h
27.06.2009 05:00 16,0 C 90 % 1009,3 hPa 0,0 l/m 0,2 km/h N 14,4 C 16,0 C 2,8 km/h
27.06.2009 06:00 16,7 C 91 % 1009,2 hPa 0,0 l/m 0,5 km/h S 15,1 C 16,7 C 3,6 km/h
27.06.2009 07:00 18,2 C 86 % 1009,6 hPa 0,0 l/m 0,8 km/h W-SW 15,7 C 18,2 C 8,4 km/h
27.06.2009 08:00 19,3 C 84 % 1010,0 hPa 0,0 l/m 2,0 km/h N-NW 16,4 C 19,3 C 7,2 km/h
27.06.2009 09:00 19,8 C 82 % 1010,1 hPa 0,0 l/m 4,6 km/h NW 16,6 C 19,8 C 10,9 km/h
27.06.2009 10:00 20,3 C 81 % 1010,3 hPa 0,0 l/m 4,8 km/h N-NO 16,8 C 20,3 C 13,3 km/h
27.06.2009 11:00 20,9 C 78 % 1010,5 hPa 0,0 l/m 3,8 km/h N-NW 17,0 C 20,9 C 10,1 km/h
27.06.2009 12:00 21,9 C 76 % 1010,4 hPa 0,0 l/m 3,4 km/h N-NW 17,3 C 21,9 C 10,9 km/h
27.06.2009 13:00 23,3 C 73 % 1010,0 hPa 0,0 l/m 2,9 km/h N-NW 18,1 C 23,3 C 8,9 km/h
27.06.2009 14:00 23,9 C 69 % 1009,7 hPa 0,0 l/m 4,1 km/h N-NW 17,8 C 23,9 C 9,3 km/h
27.06.2009 15:00 24,6 C 67 % 1009,4 hPa 0,0 l/m 3,0 km/h N-NW 18,0 C 24,6 C 9,3 km/h
27.06.2009 16:00 24,1 C 66 % 1009,5 hPa 0,0 l/m 2,2 km/h N-NO 17,3 C 24,1 C 6,4 km/h
27.06.2009 17:00 21,2 C 80 % 1010,1 hPa 12,8 l/m 3,7 km/h O 17,4 C 21,2 C 12,8 km/h
27.06.2009 18:00 19,0 C 91 % 1009,8 hPa 1,0 l/m 0,4 km/h N 17,5 C 19,0 C 4,0 km/h
27.06.2009 19:00 19,3 C 92 % 1009,6 hPa 0,0 l/m 0,1 km/h N 17,9 C 19,3 C 2,8 km/h
27.06.2009 20:00 19,3 C 92 % 1010,0 hPa 0,0 l/m 0,0 km/h N 18,0 C 19,3 C 1,2 km/h
27.06.2009 21:00 19,2 C 93 % 1010,1 hPa 0,3 l/m 0,3 km/h N-NW 18,0 C 19,2 C 2,8 km/h
27.06.2009 22:00 19,2 C 93 % 1010,6 hPa 0,0 l/m 0,9 km/h N 18,0 C 19,2 C 4,0 km/h
27.06.2009 23:00 18,7 C 92 % 1010,9 hPa 0,0 l/m 0,4 km/h N 17,4 C 18,7 C 2,8 km/h
28.06.2009 00:00 18,7 C 91 % 1010,9 hPa 0,0 l/m 0,3 km/h N-NW 17,1 C 18,7 C 2,4 km/h
28.06.2009 01:00 18,4 C 90 % 1010,8 hPa 0,0 l/m 1,2 km/h N-NW 16,7 C 18,4 C 4,4 km/h
28.06.2009 02:00 18,2 C 90 % 1010,9 hPa 0,0 l/m 0,2 km/h N 16,5 C 18,2 C 2,4 km/h
28.06.2009 03:00 18,1 C 89 % 1010,6 hPa 0,0 l/m 0,0 km/h N 16,3 C 18,1 C 1,6 km/h
28.06.2009 04:00 18,2 C 90 % 1010,3 hPa 0,0 l/m 1,1 km/h N-NW 16,4 C 18,2 C 4,0 km/h
28.06.2009 05:00 18,0 C 91 % 1010,6 hPa 0,0 l/m 0,8 km/h N-NW 16,5 C 18,0 C 3,6 km/h
28.06.2009 06:00 18,0 C 92 % 1010,8 hPa 0,0 l/m 0,4 km/h N 16,6 C 18,0 C 3,2 km/h
28.06.2009 07:00 18,3 C 91 % 1010,9 hPa 0,0 l/m 0,8 km/h N-NW 16,8 C 18,3 C 4,4 km/h
28.06.2009 08:00 18,8 C 89 % 1011,0 hPa 0,0 l/m 1,8 km/h N-NW 17,0 C 18,8 C 6,4 km/h
28.06.2009 09:00 19,3 C 87 % 1011,3 hPa 0,0 l/m 3,3 km/h N-NW 17,0 C 19,3 C 7,2 km/h
28.06.2009 10:00 19,7 C 86 % 1011,5 hPa 0,0 l/m 2,1 km/h N-NW 17,2 C 19,7 C 6,4 km/h
28.06.2009 11:00 20,2 C 84 % 1011,4 hPa 0,0 l/m 3,1 km/h N 17,3 C 20,2 C 9,3 km/h
28.06.2009 12:00 19,5 C 86 % 1011,6 hPa 0,0 l/m 3,6 km/h N-NW 17,1 C 19,5 C 8,4 km/h
28.06.2009 13:00 19,8 C 86 % 1011,5 hPa 0,0 l/m 2,7 km/h NW 17,4 C 19,8 C 6,8 km/h
28.06.2009 14:00 20,9 C 83 % 1011,5 hPa 0,0 l/m 3,5 km/h NW 17,8 C 20,9 C 10,1 km/h
28.06.2009 15:00 20,2 C 86 % 1011,6 hPa 0,3 l/m 3,1 km/h N-NW 17,7 C 20,2 C 8,8 km/h
28.06.2009 16:00 20,1 C 87 % 1011,8 hPa 1,0 l/m 1,6 km/h NW 17,9 C 20,1 C 6,0 km/h
28.06.2009 17:00 19,6 C 90 % 1012,0 hPa 0,3 l/m 1,1 km/h NW 17,9 C 19,6 C 4,8 km/h
28.06.2009 18:00 19,3 C 90 % 1012,2 hPa 0,0 l/m 0,4 km/h NW 17,7 C 19,3 C 3,2 km/h
28.06.2009 19:00 18,2 C 91 % 1012,6 hPa 3,8 l/m 1,1 km/h N-NO 16,6 C 18,2 C 4,0 km/h
28.06.2009 20:00 17,8 C 93 % 1012,8 hPa 0,0 l/m 0,0 km/h N 16,6 C 17,8 C 0,4 km/h
28.06.2009 21:00 17,9 C 92 % 1012,9 hPa 0,0 l/m 0,5 km/h N 16,6 C 17,9 C 2,8 km/h
28.06.2009 22:00 18,1 C 91 % 1013,0 hPa 0,0 l/m 0,0 km/h N 16,6 C 18,1 C 1,6 km/h
28.06.2009 23:00 18,3 C 91 % 1013,0 hPa 0,0 l/m 0,1 km/h N 16,7 C 18,3 C 2,0 km/h
Min-Datum _ 22.06.09 25.06.09 26.06.09 - 25.06.09 - 22.06.09 22.06.09 26.06.09
_ Min-Zeit 22:45 14:45 16:00 - 17:15 - 05:15 20:45 01:45
Minimum _ 12,1 C 63 % 1005,9 hPa - 0,0 km/h - 8,8 C 10,4 C 0,0 km/h
Max-Datum _ 26.06.09 27.06.09 22.06.09 27.06.09 22.06.09 - 26.06.09 26.06.09 22.06.09
_ Max-Zeit 15:30 02:15 00:00 17:30 17:45 - 15:15 15:15 19:45
Maximum _ 25,2 C 93 % 1015,8 hPa 12,8 l/m 10,5 km/h
N-NW
- 18,8 C 25,1 C 30,6 km/h
N-NW
Durchschnitt _ 16,9 C 86 % 1010,1 hPa #126,1 l/m 2,9 km/h N-NW 14,4 C 16,9 C 9,8 km/h